createdAt,value
2022-10-21T00:00:24.000Z,85.33
2022-10-21T00:01:24.056Z,85.64
2022-10-21T00:02:23.990Z,86.05
2022-10-21T00:03:24.003Z,86.46
2022-10-21T00:04:23.929Z,86.66
2022-10-21T00:05:23.959Z,86.15
2022-10-21T00:06:23.934Z,85.95
2022-10-21T00:07:24.053Z,86.66
2022-10-21T00:08:23.913Z,86.77
2022-10-21T00:09:23.904Z,86.87
2022-10-21T00:10:23.970Z,86.36
2022-10-21T00:11:23.869Z,86.36
2022-10-21T00:12:23.844Z,86.25
2022-10-21T00:13:23.882Z,87.28
2022-10-21T00:14:23.804Z,87.49
2022-10-21T00:15:23.873Z,87.49
2022-10-21T00:16:23.783Z,87.79
2022-10-21T00:17:23.864Z,86.87
2022-10-21T00:18:23.802Z,86.77
2022-10-21T00:19:23.812Z,87.08
2022-10-21T00:21:23.809Z,85.85
2022-10-21T00:22:23.766Z,86.25
2022-10-21T00:23:23.775Z,86.46
2022-10-21T00:24:23.766Z,86.25
2022-10-21T00:25:23.729Z,86.77
2022-10-21T00:26:23.753Z,86.87
2022-10-21T00:27:23.675Z,87.28
2022-10-21T00:28:23.707Z,87.90
2022-10-21T00:29:23.650Z,87.70
2022-10-21T00:30:23.698Z,88.21
2022-10-21T00:31:23.698Z,88.92
2022-10-21T00:32:23.625Z,89.33
2022-10-21T00:33:23.705Z,89.75
2022-10-21T00:34:28.395Z,89.64
2022-10-21T00:35:24.673Z,90.36
2022-10-21T00:36:23.654Z,91.18
2022-10-21T00:37:23.580Z,91.08
2022-10-21T00:38:23.588Z,91.69
2022-10-21T00:39:23.548Z,92.61
2022-10-21T00:40:23.555Z,92.93
2022-10-21T00:41:23.591Z,92.72
2022-10-21T00:42:23.532Z,92.14
2022-10-21T00:43:23.512Z,92.61
2022-10-21T00:44:23.493Z,93.27
2022-10-21T00:45:23.570Z,94.05
2022-10-21T00:46:23.461Z,94.77
2022-10-21T00:47:23.455Z,95.07
2022-10-21T00:48:23.455Z,95.39
2022-10-21T00:49:23.444Z,95.28
2022-10-21T00:50:23.447Z,95.39
2022-10-21T00:51:23.469Z,94.20
2022-10-21T00:52:23.402Z,94.30
2022-10-21T00:53:23.404Z,94.92
2022-10-21T00:54:23.384Z,95.23
2022-10-21T00:55:23.373Z,95.53
2022-10-21T00:56:23.384Z,95.23
2022-10-21T00:57:23.355Z,95.12
2022-10-21T00:58:23.342Z,95.74
2022-10-21T00:59:23.334Z,95.53
2022-10-21T01:00:23.314Z,95.64
2022-10-21T01:01:23.416Z,95.84
2022-10-21T01:02:23.331Z,96.04
2022-10-21T01:03:23.311Z,96.04
2022-10-21T01:04:23.331Z,96.25
2022-10-21T01:05:23.310Z,96.35
2022-10-21T01:06:23.349Z,96.50
2022-10-21T01:07:23.279Z,96.66
2022-10-21T01:08:23.253Z,97.07
2022-10-21T01:09:23.217Z,97.17
2022-10-21T01:10:23.218Z,97.22
2022-10-21T01:11:23.228Z,97.42
2022-10-21T01:12:23.239Z,97.53
2022-10-21T01:13:23.218Z,97.79
2022-10-21T01:14:23.168Z,97.94
2022-10-21T01:15:23.157Z,98.14
2022-10-21T01:16:23.139Z,98.25
2022-10-21T01:17:45.177Z,98.25
2022-10-21T01:18:24.135Z,98.25
2022-10-21T01:19:23.117Z,98.66
2022-10-21T01:20:23.124Z,98.86
2022-10-21T01:21:23.099Z,98.96
2022-10-21T01:22:23.122Z,99.07
2022-10-21T01:23:23.071Z,98.96
2022-10-21T01:24:23.070Z,98.96
2022-10-21T01:25:23.041Z,98.96
2022-10-21T01:26:23.042Z,98.86
2022-10-21T01:27:23.083Z,98.96
2022-10-21T01:28:23.061Z,99.27
2022-10-21T01:29:23.008Z,99.38
2022-10-21T01:30:22.991Z,99.48
2022-10-21T01:31:22.983Z,99.48
2022-10-21T01:32:22.965Z,99.48
2022-10-21T01:33:23.014Z,99.48
2022-10-21T01:34:22.960Z,99.48
2022-10-21T01:35:22.942Z,99.48
2022-10-21T01:36:22.923Z,99.58
2022-10-21T01:37:22.922Z,99.68
2022-10-21T01:38:23.233Z,99.73
2022-10-21T01:39:22.902Z,99.73
2022-10-21T01:40:22.891Z,99.89
2022-10-21T01:41:22.895Z,99.99
2022-10-21T01:42:22.882Z,99.99
2022-10-21T01:43:22.857Z,99.99
2022-10-21T01:44:22.872Z,99.99
2022-10-21T01:45:22.838Z,99.99
2022-10-21T01:46:22.827Z,99.99
2022-10-21T01:47:22.832Z,99.99
2022-10-21T01:48:22.809Z,99.99
2022-10-21T01:49:22.824Z,99.99
2022-10-21T01:50:22.776Z,99.99
2022-10-21T01:51:22.831Z,99.99
2022-10-21T01:52:22.776Z,99.93
2022-10-21T01:53:22.745Z,99.93
2022-10-21T01:54:22.790Z,99.99
2022-10-21T01:55:22.723Z,99.99
2022-10-21T01:56:22.745Z,99.99
2022-10-21T01:57:22.721Z,99.99
2022-10-21T01:58:22.702Z,99.99
2022-10-21T01:59:22.693Z,99.99
2022-10-21T02:00:22.727Z,99.99
2022-10-21T02:01:22.688Z,99.99
2022-10-21T02:02:22.660Z,99.93
2022-10-21T02:03:22.638Z,99.93
2022-10-21T02:04:22.646Z,99.93
2022-10-21T02:05:22.633Z,99.93
2022-10-21T02:06:22.663Z,99.99
2022-10-21T02:07:22.598Z,99.99
2022-10-21T02:08:22.588Z,99.99
2022-10-21T02:09:22.668Z,99.99
2022-10-21T02:10:22.553Z,99.99
2022-10-21T02:11:22.574Z,99.99
2022-10-21T02:12:22.584Z,99.99
2022-10-21T02:13:22.534Z,99.99
2022-10-21T02:14:22.512Z,99.83
2022-10-21T02:15:22.523Z,99.73
2022-10-21T02:16:22.498Z,99.83
2022-10-21T02:17:22.491Z,99.99
2022-10-21T02:18:22.511Z,99.99
2022-10-21T02:19:22.547Z,99.99
2022-10-21T02:20:22.452Z,99.99
2022-10-21T02:21:22.445Z,99.99
2022-10-21T02:22:22.441Z,99.99
2022-10-21T02:23:22.437Z,99.99
2022-10-21T02:24:22.480Z,99.99
2022-10-21T02:25:22.407Z,99.99
2022-10-21T02:26:22.421Z,99.99
2022-10-21T02:27:22.377Z,99.99
2022-10-21T02:28:22.379Z,99.99
2022-10-21T02:29:22.355Z,99.99
2022-10-21T02:30:22.384Z,99.99
2022-10-21T02:31:22.337Z,99.99
2022-10-21T02:32:22.318Z,99.99
2022-10-21T02:33:22.321Z,99.99
2022-10-21T02:34:22.297Z,99.99
2022-10-21T02:35:22.295Z,99.93
2022-10-21T02:36:22.304Z,99.83
2022-10-21T02:37:22.282Z,99.83
2022-10-21T02:38:22.257Z,99.93
2022-10-21T02:39:22.256Z,99.99
2022-10-21T02:40:22.243Z,99.99
2022-10-21T02:41:22.229Z,99.99
2022-10-21T02:42:22.277Z,99.99
2022-10-21T02:43:22.231Z,99.99
2022-10-21T02:44:22.193Z,99.99
2022-10-21T02:45:22.195Z,99.99
2022-10-21T02:46:22.167Z,99.99
2022-10-21T02:47:22.258Z,99.99
2022-10-21T02:48:22.159Z,99.99
2022-10-21T02:49:22.164Z,99.99
2022-10-21T02:50:22.139Z,99.99
2022-10-21T02:51:22.141Z,99.99
2022-10-21T02:52:22.110Z,99.99
2022-10-21T02:53:22.310Z,99.99
2022-10-21T02:54:22.082Z,99.99
2022-10-21T02:55:22.075Z,99.99
2022-10-21T02:56:22.140Z,99.99
2022-10-21T02:57:22.059Z,99.99
2022-10-21T02:58:22.039Z,99.99
2022-10-21T02:59:22.079Z,99.99
2022-10-21T03:00:22.030Z,99.99
2022-10-21T03:01:22.102Z,99.99
2022-10-21T03:02:22.007Z,99.99
2022-10-21T03:03:22.001Z,99.99
2022-10-21T03:04:21.982Z,99.99
2022-10-21T03:05:22.049Z,99.99
2022-10-21T03:06:21.950Z,99.99
2022-10-21T03:07:21.962Z,99.99
2022-10-21T03:08:21.949Z,99.99
2022-10-21T03:09:21.930Z,99.99
2022-10-21T03:10:21.917Z,99.99
2022-10-21T03:11:21.931Z,99.99
2022-10-21T03:12:21.884Z,99.99
2022-10-21T03:13:21.906Z,99.99
2022-10-21T03:14:21.933Z,99.99
2022-10-21T03:15:21.883Z,99.99
2022-10-21T03:16:21.939Z,99.99
2022-10-21T03:17:25.099Z,99.99
2022-10-21T03:18:21.846Z,99.99
2022-10-21T03:19:21.845Z,99.99
2022-10-21T03:20:21.803Z,99.99
2022-10-21T03:21:21.852Z,99.99
2022-10-21T03:22:21.786Z,99.99
2022-10-21T03:23:21.802Z,99.99
2022-10-21T03:24:28.393Z,99.99
2022-10-21T03:25:22.757Z,99.99
2022-10-21T03:26:21.743Z,99.99
2022-10-21T03:27:21.901Z,99.99
2022-10-21T03:28:21.735Z,99.99
2022-10-21T03:29:21.735Z,99.99
2022-10-21T03:30:21.705Z,99.99
2022-10-21T03:31:21.687Z,99.99
2022-10-21T03:32:21.666Z,99.99
2022-10-21T03:33:21.706Z,99.99
2022-10-21T03:34:21.659Z,99.99
2022-10-21T03:35:21.654Z,99.99
2022-10-21T03:36:21.636Z,99.99
2022-10-21T03:37:21.641Z,99.99
2022-10-21T03:38:21.637Z,99.99
2022-10-21T03:39:21.642Z,99.99
2022-10-21T03:40:21.632Z,99.99
2022-10-21T03:41:21.599Z,99.99
2022-10-21T03:42:21.589Z,99.99
2022-10-21T03:43:21.594Z,99.99
2022-10-21T03:44:21.553Z,99.99
2022-10-21T03:45:21.589Z,99.99
2022-10-21T03:46:21.542Z,99.99
2022-10-21T03:47:21.520Z,99.99
2022-10-21T03:48:21.500Z,99.99
2022-10-21T03:49:21.703Z,99.99
2022-10-21T03:50:25.402Z,99.99
2022-10-21T03:51:22.512Z,99.99
2022-10-21T03:52:21.449Z,99.99
2022-10-21T03:53:38.240Z,99.99
2022-10-21T03:54:22.431Z,99.99
2022-10-21T03:55:21.460Z,99.99
2022-10-21T03:56:21.440Z,99.99
2022-10-21T03:57:21.451Z,99.99
2022-10-21T03:58:21.435Z,99.99
2022-10-21T03:59:21.385Z,99.99
2022-10-21T04:00:21.369Z,99.99
2022-10-21T04:01:21.443Z,99.99
2022-10-21T04:02:21.354Z,99.99
2022-10-21T04:03:21.413Z,99.99
2022-10-21T04:04:21.333Z,99.99
2022-10-21T04:05:21.315Z,99.99
2022-10-21T04:06:21.336Z,99.99
2022-10-21T04:07:21.303Z,99.99
2022-10-21T04:08:21.301Z,99.99
2022-10-21T04:09:21.332Z,99.99
2022-10-21T04:10:21.281Z,99.99
2022-10-21T04:11:21.288Z,99.99
2022-10-21T04:12:21.246Z,99.99
2022-10-21T04:13:21.232Z,99.99
2022-10-21T04:14:21.225Z,99.99
2022-10-21T04:15:21.256Z,99.99
2022-10-21T04:16:21.216Z,99.99
2022-10-21T04:17:21.197Z,99.99
2022-10-21T04:18:21.182Z,99.99
2022-10-21T04:19:21.154Z,99.99
2022-10-21T04:20:21.165Z,99.99
2022-10-21T04:21:21.199Z,99.99
2022-10-21T04:22:21.120Z,99.99
2022-10-21T04:23:21.126Z,99.99
2022-10-21T04:24:21.101Z,99.99
2022-10-21T04:25:21.117Z,99.99
2022-10-21T04:26:21.082Z,99.99
2022-10-21T04:27:21.138Z,99.99
2022-10-21T04:28:21.053Z,99.99
2022-10-21T04:29:21.054Z,99.99
2022-10-21T04:30:21.032Z,99.99
2022-10-21T04:31:21.036Z,99.99
2022-10-21T04:32:21.046Z,99.99
2022-10-21T04:33:21.043Z,99.99
2022-10-21T04:34:20.995Z,99.99
2022-10-21T04:35:21.004Z,99.99
2022-10-21T04:36:20.987Z,99.99
2022-10-21T04:37:20.975Z,99.99
2022-10-21T04:38:20.980Z,99.99
2022-10-21T04:39:20.950Z,99.99
2022-10-21T04:40:20.940Z,99.99
2022-10-21T04:41:20.919Z,99.99
2022-10-21T04:42:20.960Z,99.99
2022-10-21T04:43:20.904Z,99.99
2022-10-21T04:44:20.945Z,99.99
2022-10-21T04:45:20.891Z,99.99
2022-10-21T04:46:20.882Z,99.99
2022-10-21T04:47:20.875Z,99.99
2022-10-21T04:48:20.855Z,99.99
2022-10-21T04:49:20.846Z,99.99
2022-10-21T04:50:20.862Z,99.99
2022-10-21T04:51:20.850Z,99.99
2022-10-21T04:52:21.179Z,99.99
2022-10-21T04:53:20.794Z,99.99
2022-10-21T04:54:20.795Z,99.99
2022-10-21T04:55:20.763Z,99.99
2022-10-21T04:56:20.784Z,99.99
2022-10-21T04:57:20.764Z,99.99
2022-10-21T04:58:21.948Z,99.99
2022-10-21T04:59:20.733Z,99.99
2022-10-21T05:00:20.725Z,99.99
2022-10-21T05:01:20.778Z,99.99
2022-10-21T05:02:23.072Z,99.99
2022-10-21T05:03:20.660Z,99.99
2022-10-21T05:04:20.676Z,99.99
2022-10-21T05:05:20.643Z,99.99
2022-10-21T05:06:20.654Z,99.99
2022-10-21T05:07:20.669Z,99.99
2022-10-21T05:08:20.637Z,99.99
2022-10-21T05:09:20.604Z,99.99
2022-10-21T05:10:20.628Z,99.99
2022-10-21T05:11:20.606Z,99.99
2022-10-21T05:12:20.586Z,99.99
2022-10-21T05:13:20.601Z,99.99
2022-10-21T05:14:22.696Z,99.99
2022-10-21T05:15:20.556Z,99.99
2022-10-21T05:16:20.560Z,99.99
2022-10-21T05:17:20.540Z,99.99
2022-10-21T05:18:20.520Z,99.99
2022-10-21T05:19:20.558Z,99.99
2022-10-21T05:20:20.517Z,99.99
2022-10-21T05:21:20.501Z,99.99
2022-10-21T05:22:20.480Z,99.99
2022-10-21T05:23:20.470Z,99.99
2022-10-21T05:24:20.461Z,99.99
2022-10-21T05:25:20.492Z,99.99
2022-10-21T05:26:20.453Z,99.99
2022-10-21T05:27:20.451Z,99.99
2022-10-21T05:28:20.423Z,99.99
2022-10-21T05:29:20.407Z,99.99
2022-10-21T05:30:20.536Z,99.99
2022-10-21T05:31:20.378Z,99.99
2022-10-21T05:32:20.375Z,99.99
2022-10-21T05:33:20.371Z,99.99
2022-10-21T05:34:20.365Z,99.99
2022-10-21T05:35:20.372Z,99.99
2022-10-21T05:36:23.245Z,99.99
2022-10-21T05:37:20.325Z,99.99
2022-10-21T05:38:20.325Z,99.99
2022-10-21T05:39:20.310Z,99.99
2022-10-21T05:40:20.291Z,99.99
2022-10-21T05:41:20.290Z,99.99
2022-10-21T05:42:20.330Z,99.99
2022-10-21T05:43:20.265Z,99.99
2022-10-21T05:44:20.239Z,99.99
2022-10-21T05:45:20.257Z,99.99
2022-10-21T05:46:20.259Z,99.99
2022-10-21T05:47:20.260Z,99.99
2022-10-21T05:48:20.215Z,99.99
2022-10-21T05:49:20.206Z,99.99
2022-10-21T05:50:20.196Z,99.99
2022-10-21T05:51:20.176Z,99.99
2022-10-21T05:52:20.163Z,99.99
2022-10-21T05:53:20.196Z,99.99
2022-10-21T05:54:20.152Z,99.99
2022-10-21T05:55:20.137Z,99.99
2022-10-21T05:56:20.150Z,99.99
2022-10-21T05:57:20.100Z,99.99
2022-10-21T05:58:20.096Z,99.99
2022-10-21T05:59:20.127Z,99.99
2022-10-21T06:00:20.068Z,99.99
2022-10-21T06:01:20.160Z,99.99
2022-10-21T06:02:20.071Z,99.99
2022-10-21T06:03:20.053Z,99.99
2022-10-21T06:04:20.065Z,99.99
2022-10-21T06:05:20.059Z,99.99
2022-10-21T06:06:20.038Z,99.99
2022-10-21T06:07:20.002Z,99.99
2022-10-21T06:08:19.979Z,99.99
2022-10-21T06:09:19.977Z,99.99
2022-10-21T06:10:19.958Z,99.99
2022-10-21T06:11:20.047Z,99.99
2022-10-21T06:12:19.975Z,99.99
2022-10-21T06:13:19.921Z,99.99
2022-10-21T06:14:19.908Z,99.99
2022-10-21T06:15:19.908Z,99.99
2022-10-21T06:16:19.912Z,99.99
2022-10-21T06:17:19.930Z,99.99
2022-10-21T06:18:19.883Z,99.99
2022-10-21T06:19:19.871Z,99.99
2022-10-21T06:20:19.890Z,99.99
2022-10-21T06:21:19.853Z,99.99
2022-10-21T06:22:19.830Z,99.99
2022-10-21T06:23:19.882Z,99.99
2022-10-21T06:24:19.841Z,99.99
2022-10-21T06:25:19.804Z,99.99
2022-10-21T06:26:19.790Z,99.99
2022-10-21T06:27:19.783Z,99.99
2022-10-21T06:28:19.765Z,99.99
2022-10-21T06:29:19.809Z,99.99
2022-10-21T06:30:19.743Z,99.99
2022-10-21T06:31:19.745Z,99.99
2022-10-21T06:32:19.717Z,99.99
2022-10-21T06:33:24.586Z,99.99
2022-10-21T06:34:20.732Z,99.99
2022-10-21T06:35:19.696Z,99.99
2022-10-21T06:36:19.675Z,99.99
2022-10-21T06:37:19.652Z,99.99
2022-10-21T06:38:19.647Z,99.99
2022-10-21T06:39:19.649Z,99.99
2022-10-21T06:40:19.664Z,99.99
2022-10-21T06:41:19.639Z,99.99
2022-10-21T06:42:19.610Z,99.99
2022-10-21T06:43:19.682Z,99.99
2022-10-21T06:44:19.580Z,99.99
2022-10-21T06:45:19.582Z,99.99
2022-10-21T06:46:19.616Z,99.99
2022-10-21T06:47:19.574Z,99.99
2022-10-21T06:48:19.540Z,99.99
2022-10-21T06:49:19.526Z,99.99
2022-10-21T06:50:19.523Z,99.99
2022-10-21T06:51:19.562Z,99.99
2022-10-21T06:52:19.597Z,99.99
2022-10-21T06:53:19.524Z,99.99
2022-10-21T06:54:19.499Z,99.99
2022-10-21T06:55:19.468Z,99.99
2022-10-21T06:56:19.475Z,99.99
2022-10-21T06:57:19.478Z,99.99
2022-10-21T06:58:19.441Z,99.99
2022-10-21T06:59:19.431Z,99.99
2022-10-21T07:00:19.469Z,99.99
2022-10-21T07:01:33.864Z,99.99
2022-10-21T07:02:20.410Z,99.99
2022-10-21T07:03:19.388Z,99.99
2022-10-21T07:04:19.377Z,99.99
2022-10-21T07:05:19.370Z,99.99
2022-10-21T07:06:19.415Z,99.99
2022-10-21T07:07:19.380Z,99.99
2022-10-21T07:08:22.413Z,99.99
2022-10-21T07:09:20.378Z,99.99
2022-10-21T07:10:19.334Z,99.99
2022-10-21T07:11:19.310Z,99.99
2022-10-21T07:12:19.280Z,99.99
2022-10-21T07:13:23.487Z,99.99
2022-10-21T07:14:20.312Z,99.99
2022-10-21T07:15:19.261Z,99.99
2022-10-21T07:16:19.245Z,99.99
2022-10-21T07:17:19.283Z,99.99
2022-10-21T07:18:19.226Z,99.99
2022-10-21T07:19:19.216Z,99.99
2022-10-21T07:20:19.203Z,99.99
2022-10-21T07:21:19.194Z,99.99
2022-10-21T07:22:19.232Z,99.99
2022-10-21T07:23:19.172Z,99.99
2022-10-21T07:24:22.560Z,99.99
2022-10-21T07:25:19.166Z,99.99
2022-10-21T07:26:19.135Z,99.99
2022-10-21T07:27:19.173Z,99.99
2022-10-21T07:28:19.114Z,99.99
2022-10-21T07:29:19.128Z,99.99
2022-10-21T07:30:19.097Z,99.99
2022-10-21T07:31:19.086Z,99.99
2022-10-21T07:32:19.097Z,99.99
2022-10-21T07:33:19.125Z,99.99
2022-10-21T07:34:19.052Z,99.99
2022-10-21T07:35:19.036Z,99.99
2022-10-21T07:36:19.035Z,99.99
2022-10-21T07:37:19.022Z,99.99
2022-10-21T07:38:20.976Z,99.99
2022-10-21T07:39:18.995Z,99.99
2022-10-21T07:40:18.998Z,99.99
2022-10-21T07:41:18.982Z,99.99
2022-10-21T07:42:18.983Z,99.99
2022-10-21T07:43:18.953Z,99.99
2022-10-21T07:44:18.984Z,99.99
2022-10-21T07:45:18.931Z,99.99
2022-10-21T07:46:18.925Z,99.99
2022-10-21T07:47:18.909Z,99.99
2022-10-21T07:48:18.939Z,99.99
2022-10-21T07:49:18.894Z,99.99
2022-10-21T07:50:18.923Z,99.99
2022-10-21T07:51:18.858Z,99.99
2022-10-21T07:52:18.869Z,99.99
2022-10-21T07:53:19.389Z,99.99
2022-10-21T07:54:18.829Z,99.99
2022-10-21T07:55:18.811Z,99.99
2022-10-21T07:56:18.839Z,99.99
2022-10-21T07:57:18.800Z,99.99
2022-10-21T07:58:18.792Z,99.99
2022-10-21T07:59:18.782Z,99.99
2022-10-21T08:00:18.780Z,99.99
2022-10-21T08:01:18.806Z,99.99
2022-10-21T08:02:18.793Z,99.99
2022-10-21T08:03:18.763Z,99.99
2022-10-21T08:04:18.729Z,99.99
2022-10-21T08:05:18.730Z,99.99
2022-10-21T08:06:18.716Z,99.99
2022-10-21T08:07:18.690Z,99.99
2022-10-21T08:08:18.690Z,99.99
2022-10-21T08:09:18.785Z,99.99
2022-10-21T08:10:18.650Z,99.99
2022-10-21T08:11:18.655Z,99.99
2022-10-21T08:12:18.644Z,99.99
2022-10-21T08:13:18.624Z,99.99
2022-10-21T08:14:18.648Z,99.99
2022-10-21T08:15:18.604Z,99.99
2022-10-21T08:16:18.608Z,99.99
2022-10-21T08:17:18.595Z,99.99
2022-10-21T08:18:18.575Z,99.99
2022-10-21T08:19:18.556Z,99.99
2022-10-21T08:20:18.597Z,99.99
2022-10-21T08:21:18.552Z,99.99
2022-10-21T08:22:18.529Z,99.99
2022-10-21T08:23:18.522Z,99.99
2022-10-21T08:24:18.645Z,99.99
2022-10-21T08:25:18.499Z,99.99
2022-10-21T08:26:18.496Z,99.99
2022-10-21T08:27:18.477Z,99.99
2022-10-21T08:28:18.497Z,99.99
2022-10-21T08:29:18.460Z,99.99
2022-10-21T08:30:18.482Z,99.99
2022-10-21T08:31:18.431Z,99.99
2022-10-21T08:32:18.425Z,99.99
2022-10-21T08:33:18.417Z,99.99
2022-10-21T08:34:18.421Z,99.99
2022-10-21T08:35:18.395Z,99.99
2022-10-21T08:36:18.411Z,99.99
2022-10-21T08:37:21.002Z,99.99
2022-10-21T08:38:19.360Z,99.99
2022-10-21T08:39:18.361Z,99.99
2022-10-21T08:40:18.360Z,99.99
2022-10-21T08:41:18.588Z,99.99
2022-10-21T08:42:18.371Z,99.99
2022-10-21T08:43:18.313Z,99.99
2022-10-21T08:44:18.304Z,99.99
2022-10-21T08:45:18.283Z,99.99
2022-10-21T08:46:18.270Z,99.99
2022-10-21T08:47:18.251Z,99.76
2022-10-21T08:48:18.279Z,99.76
2022-10-21T08:49:19.482Z,99.86
2022-10-21T08:50:18.223Z,99.96
2022-10-21T08:51:18.233Z,99.86
2022-10-21T08:52:18.201Z,99.76
2022-10-21T08:53:18.210Z,99.66
2022-10-21T08:54:18.187Z,99.66
2022-10-21T08:55:18.167Z,99.76
2022-10-21T08:56:19.992Z,99.76
2022-10-21T08:57:18.147Z,99.35
2022-10-21T08:58:18.146Z,99.25
2022-10-21T08:59:18.132Z,99.20
2022-10-21T09:00:18.160Z,99.41
2022-10-21T09:01:18.145Z,99.51
2022-10-21T09:02:18.105Z,99.61
2022-10-21T09:03:18.166Z,99.71
2022-10-21T09:04:18.073Z,99.30
2022-10-21T09:05:18.080Z,98.90
2022-10-21T09:06:18.067Z,98.99
2022-10-21T09:07:18.066Z,99.15
2022-10-21T09:08:18.026Z,99.26
2022-10-21T09:09:18.047Z,99.15
2022-10-21T09:10:18.050Z,99.05
2022-10-21T09:11:18.017Z,98.74
2022-10-21T09:12:18.006Z,98.95
2022-10-21T09:13:17.979Z,98.95
2022-10-21T09:14:17.989Z,98.85
2022-10-21T09:15:17.959Z,98.70
2022-10-21T09:16:17.950Z,98.60
2022-10-21T09:17:17.967Z,98.70
2022-10-21T09:18:17.917Z,98.90
2022-10-21T09:19:17.922Z,99.01
2022-10-21T09:20:17.896Z,98.70
2022-10-21T09:21:17.902Z,98.49
2022-10-21T09:22:34.175Z,98.60
2022-10-21T09:23:18.860Z,98.86
2022-10-21T09:24:17.851Z,99.06
2022-10-21T09:25:17.837Z,98.45
2022-10-21T09:26:17.869Z,98.45
2022-10-21T09:27:22.759Z,98.35
2022-10-21T09:28:18.809Z,98.24
2022-10-21T09:29:17.803Z,98.04
2022-10-21T09:30:17.788Z,98.10
2022-10-21T09:31:17.775Z,98.10
2022-10-21T09:32:17.836Z,97.83
2022-10-21T09:33:17.759Z,97.79
2022-10-21T09:34:17.750Z,97.58
2022-10-21T09:35:17.742Z,97.58
2022-10-21T09:36:17.735Z,97.69
2022-10-21T09:37:17.753Z,97.79
2022-10-21T09:38:17.705Z,97.89
2022-10-21T09:39:17.686Z,97.08
2022-10-21T09:40:17.683Z,96.97
2022-10-21T09:41:17.744Z,97.17
2022-10-21T09:42:42.266Z,97.17
2022-10-21T09:43:18.689Z,97.28
2022-10-21T09:44:17.642Z,97.17
2022-10-21T09:45:17.623Z,96.56
2022-10-21T09:46:17.614Z,96.21
2022-10-21T09:47:17.652Z,96.51
2022-10-21T09:48:17.584Z,96.83
2022-10-21T09:49:47.890Z,96.51
2022-10-21T09:50:18.616Z,96.92
2022-10-21T09:51:17.564Z,97.24
2022-10-21T09:52:17.546Z,97.24
2022-10-21T09:53:20.394Z,96.92
2022-10-21T09:54:18.523Z,97.03
2022-10-21T09:55:17.524Z,96.21
2022-10-21T09:56:17.508Z,96.51
2022-10-21T09:57:17.503Z,96.58
2022-10-21T09:58:17.487Z,96.47
2022-10-21T09:59:17.518Z,96.58
2022-10-21T10:00:17.477Z,96.58
2022-10-21T10:01:17.470Z,96.88
2022-10-21T10:02:17.459Z,96.98
2022-10-21T10:03:17.445Z,97.08
2022-10-21T10:04:17.410Z,97.29
2022-10-21T10:05:17.427Z,97.39
2022-10-21T10:06:17.396Z,97.39
2022-10-21T10:07:17.388Z,97.29
2022-10-21T10:08:17.437Z,97.39
2022-10-21T10:09:17.397Z,96.78
2022-10-21T10:10:17.360Z,96.06
2022-10-21T10:11:17.386Z,95.76
2022-10-21T10:12:17.341Z,95.86
2022-10-21T10:13:17.331Z,96.17
2022-10-21T10:14:17.308Z,96.47
2022-10-21T10:15:17.308Z,96.58
2022-10-21T10:16:17.289Z,96.68
2022-10-21T10:17:17.318Z,96.88
2022-10-21T10:18:17.279Z,97.29
2022-10-21T10:19:17.286Z,97.24
2022-10-21T10:20:17.254Z,97.24
2022-10-21T10:21:17.239Z,97.45
2022-10-21T10:22:17.243Z,97.55
2022-10-21T10:23:17.240Z,97.65
2022-10-21T10:24:17.205Z,98.06
2022-10-21T10:25:17.204Z,98.16
2022-10-21T10:26:17.171Z,98.47
2022-10-21T10:27:17.202Z,98.57
2022-10-21T10:28:17.153Z,98.68
2022-10-21T10:29:17.165Z,98.88
2022-10-21T10:30:17.134Z,98.98
2022-10-21T10:31:17.133Z,98.98
2022-10-21T10:32:17.122Z,98.88
2022-10-21T10:33:17.152Z,98.77
2022-10-21T10:34:17.094Z,98.68
2022-10-21T10:35:17.097Z,98.36
2022-10-21T10:36:17.077Z,98.27
2022-10-21T10:37:17.052Z,98.27
2022-10-21T10:38:17.062Z,98.27
2022-10-21T10:39:17.074Z,98.27
2022-10-21T10:40:17.030Z,98.16
2022-10-21T10:41:17.024Z,98.06
2022-10-21T10:42:17.009Z,97.86
2022-10-21T10:43:16.994Z,97.34
2022-10-21T10:44:16.987Z,97.24
2022-10-21T10:45:17.030Z,97.09
2022-10-21T10:46:16.966Z,97.20
2022-10-21T10:47:16.967Z,97.20
2022-10-21T10:48:16.956Z,97.30
2022-10-21T10:49:16.926Z,97.30
2022-10-21T10:50:16.906Z,96.79
2022-10-21T10:51:16.937Z,96.28
2022-10-21T10:52:16.915Z,96.28
2022-10-21T10:53:16.913Z,96.48
2022-10-21T10:54:16.880Z,96.69
2022-10-21T10:55:16.875Z,96.89
2022-10-21T10:56:16.849Z,97.00
2022-10-21T10:57:16.864Z,97.20
2022-10-21T10:58:19.103Z,97.30
2022-10-21T10:59:16.812Z,97.50
2022-10-21T11:00:16.829Z,97.71
2022-10-21T11:01:16.830Z,97.91
2022-10-21T11:02:16.779Z,98.22
2022-10-21T11:03:16.790Z,98.38
2022-10-21T11:04:16.775Z,98.58
2022-10-21T11:05:16.751Z,98.79
2022-10-21T11:06:16.770Z,98.89
2022-10-21T11:07:16.734Z,98.89
2022-10-21T11:08:16.721Z,98.99
2022-10-21T11:09:16.840Z,98.89
2022-10-21T11:10:16.698Z,98.68
2022-10-21T11:11:16.715Z,98.58
2022-10-21T11:12:16.680Z,98.58
2022-10-21T11:13:16.662Z,98.58
2022-10-21T11:14:19.099Z,98.58
2022-10-21T11:15:17.653Z,98.58
2022-10-21T11:16:16.631Z,98.58
2022-10-21T11:17:16.651Z,98.68
2022-10-21T11:18:24.765Z,98.58
2022-10-21T11:19:17.924Z,98.58
2022-10-21T11:20:16.584Z,98.58
2022-10-21T11:21:16.604Z,98.68
2022-10-21T11:22:16.589Z,98.68
2022-10-21T11:23:16.575Z,98.68
2022-10-21T11:24:16.568Z,98.79
2022-10-21T11:25:16.536Z,98.79
2022-10-21T11:26:16.562Z,98.89
2022-10-21T11:27:19.065Z,98.79
2022-10-21T11:28:16.546Z,98.38
2022-10-21T11:29:16.499Z,98.07
2022-10-21T11:30:16.494Z,97.87
2022-10-21T11:31:16.497Z,97.77
2022-10-21T11:32:16.493Z,97.77
2022-10-21T11:33:16.467Z,97.87
2022-10-21T11:34:16.431Z,97.97
2022-10-21T11:35:16.438Z,98.02
2022-10-21T11:36:16.430Z,98.13
2022-10-21T11:37:16.425Z,98.33
2022-10-21T11:38:16.419Z,98.33
2022-10-21T11:39:21.236Z,98.33
2022-10-21T11:40:17.387Z,97.92
2022-10-21T11:42:16.375Z,97.41
2022-10-21T11:43:16.338Z,97.52
2022-10-21T11:44:16.329Z,97.16
2022-10-21T11:45:16.318Z,96.91
2022-10-21T11:46:16.317Z,96.96
2022-10-21T11:47:16.319Z,96.96
2022-10-21T11:48:16.279Z,96.96
2022-10-21T11:49:16.273Z,96.66
2022-10-21T11:50:16.311Z,96.35
2022-10-21T11:51:16.653Z,96.45
2022-10-21T11:52:16.292Z,96.76
2022-10-21T11:53:16.222Z,96.76
2022-10-21T11:54:16.243Z,96.66
2022-10-21T11:55:16.210Z,96.55
2022-10-21T11:56:16.212Z,95.94
2022-10-21T11:57:16.183Z,95.64
2022-10-21T11:58:16.202Z,95.03
2022-10-21T11:59:16.193Z,95.13
2022-10-21T12:00:16.162Z,95.23
2022-10-21T12:01:16.135Z,95.33
2022-10-21T12:02:16.244Z,95.13
2022-10-21T12:03:16.155Z,94.92
2022-10-21T12:04:16.097Z,94.42
2022-10-21T12:05:16.107Z,94.52
2022-10-21T12:06:16.094Z,95.03
2022-10-21T12:07:16.086Z,94.82
2022-10-21T12:08:16.158Z,94.52
2022-10-21T12:09:16.087Z,93.76
2022-10-21T12:10:16.055Z,93.50
2022-10-21T12:11:16.061Z,93.66
2022-10-21T12:12:16.039Z,93.66
2022-10-21T12:13:16.026Z,93.96
2022-10-21T12:14:16.040Z,93.86
2022-10-21T12:15:16.030Z,94.17
2022-10-21T12:16:15.987Z,94.07
2022-10-21T12:17:15.983Z,94.57
2022-10-21T12:18:15.958Z,95.08
2022-10-21T12:19:15.936Z,94.68
2022-10-21T12:20:15.972Z,93.96
2022-10-21T12:21:15.990Z,94.84
2022-10-21T12:22:15.912Z,94.84
2022-10-21T12:23:15.908Z,94.32
2022-10-21T12:24:15.918Z,94.12
2022-10-21T12:25:15.875Z,94.12
2022-10-21T12:26:15.886Z,93.62
2022-10-21T12:27:15.907Z,94.12
2022-10-21T12:28:15.888Z,93.71
2022-10-21T12:29:15.829Z,93.21
2022-10-21T12:30:15.851Z,93.31
2022-10-21T12:31:15.820Z,93.82
2022-10-21T12:32:15.823Z,93.71
2022-10-21T12:33:15.823Z,93.47
2022-10-21T12:34:15.781Z,93.57
2022-10-21T12:35:15.781Z,93.87
2022-10-21T12:36:15.754Z,94.23
2022-10-21T12:37:15.740Z,94.23
2022-10-21T12:38:15.744Z,94.43
2022-10-21T12:39:15.750Z,93.71
2022-10-21T12:40:15.797Z,94.02
2022-10-21T12:41:15.745Z,94.93
2022-10-21T12:42:15.692Z,94.63
2022-10-21T12:43:15.685Z,93.82
2022-10-21T12:44:15.673Z,93.82
2022-10-21T12:45:15.705Z,93.82
2022-10-21T12:46:15.649Z,93.92
2022-10-21T12:47:15.646Z,94.23
2022-10-21T12:48:15.625Z,94.12
2022-10-21T12:49:15.648Z,94.12
2022-10-21T12:50:15.636Z,94.02
2022-10-21T12:51:15.614Z,94.12
2022-10-21T12:52:15.594Z,94.32
2022-10-21T12:53:15.567Z,94.53
2022-10-21T12:54:15.575Z,94.23